This is the latest recevied weather packets stored in our database for station/object M0XDC. If no packets are shown the sender has not sent any weather packets the latest 10 day(s).
| Time | Temp. | Humidity | Pressure | Rain* | Wind** | Luminosity | Snow |
|---|---|---|---|---|---|---|---|
| 1777315057 | 15.56° C | 54% | 1020.1 hPa | 0 mm | - | - | - |
| 1777313257 | 16.11° C | 52% | 1020.1 hPa | 0 mm | - | - | - |
| 1777311457 | 16.11° C | 51% | 1020 hPa | 0 mm | - | - | - |
| 1777309657 | 16.67° C | 51% | 1019.7 hPa | 0 mm | - | - | - |
| 1777307857 | 17.22° C | 53% | 1020.1 hPa | 0 mm | - | - | - |
| 1777306057 | 17.78° C | 51% | 1020 hPa | 0 mm | - | - | - |
| 1777304257 | 20° C | 36% | 1020 hPa | 0 mm | - | - | - |
| 1777302003 | 20.56° C | 37% | 1020.1 hPa | 0 mm | - | - | - |
| 1777299305 | 20.56° C | 38% | 1020.7 hPa | 0 mm | - | - | - |
| 1777298857 | 20.56° C | 37% | 1020.9 hPa | 0 mm | - | - | - |
| 1777297057 | 20° C | 39% | 1021.2 hPa | 0 mm | - | - | - |
| 1777295257 | 20° C | 43% | 1021.5 hPa | 0 mm | - | - | - |
| 1777293457 | 19.44° C | 43% | 1021.5 hPa | 0 mm | - | - | - |
| 1777291203 | 18.89° C | 45% | 1021.9 hPa | 0 mm | - | - | - |
| 1777289857 | 18.89° C | 46% | 1021.8 hPa | 0 mm | - | - | - |
| 1777286841 | 17.78° C | 49% | 1022.3 hPa | 0 mm | - | - | - |
| 1777285803 | 18.33° C | 49% | 1022.3 hPa | 0 mm | - | - | - |
| 1777284905 | 17.22° C | 51% | 1022.5 hPa | 0 mm | - | - | - |
| 1777279505 | 14.44° C | 57% | 1022.7 hPa | 0 mm | - | - | - |
| 1777270505 | 7.78° C | 85% | 1022.9 hPa | 0 mm | - | - | - |
| 1777270057 | 7.22° C | 87% | 1023 hPa | 0 mm | - | - | - |
| 1777267803 | 6.11° C | 89% | 1022.7 hPa | 0 mm | - | - | - |
| 1777262405 | 5.56° C | 90% | 1022.5 hPa | 0 mm | - | - | - |
| 1777258803 | 6.67° C | 88% | 1022.2 hPa | 0 mm | - | - | - |
| 1777256240 | 6.67° C | 87% | 1022.3 hPa | 0 mm | - | - | - |
* Rain latest hour (hover to see other rain measurements)
** Current wind speed in m/s (hover to see current wind gust speed)